createdAt,value
2022-08-02T00:00:17.212Z,6.50
2022-08-02T00:02:48.894Z,7.35
2022-08-02T00:05:19.518Z,6.78
2022-08-02T00:07:50.154Z,6.65
2022-08-02T00:10:20.537Z,7.85
2022-08-02T00:12:50.794Z,6.95
2022-08-02T00:15:23.672Z,6.70
2022-08-02T00:20:24.804Z,7.70
2022-08-02T00:22:55.231Z,8.48
2022-08-02T00:25:25.706Z,8.20
2022-08-02T00:27:55.727Z,7.65
2022-08-02T00:30:26.187Z,7.93
2022-08-02T00:32:56.955Z,8.93
2022-08-02T00:35:27.851Z,8.57
2022-08-02T00:37:58.112Z,9.73
2022-08-02T00:40:28.977Z,11.88
2022-08-02T00:43:05.543Z,10.93
2022-08-02T00:45:58.574Z,9.70
2022-08-02T00:48:29.436Z,11.52
2022-08-02T00:51:00.601Z,9.52
2022-08-02T00:53:30.725Z,8.75
2022-08-02T00:56:01.749Z,7.72
2022-08-02T00:58:31.847Z,10.13
2022-08-02T01:01:03.188Z,8.18
2022-08-02T01:03:33.272Z,8.05
2022-08-02T01:06:11.153Z,7.78
2022-08-02T01:08:43.774Z,10.32
2022-08-02T01:11:14.876Z,9.23
2022-08-02T01:13:44.825Z,8.45
2022-08-02T01:16:20.703Z,8.88
2022-08-02T01:18:57.490Z,9.10
2022-08-02T01:21:37.403Z,9.10
2022-08-02T01:24:39.297Z,7.90
2022-08-02T01:27:29.711Z,10.45
2022-08-02T01:30:03.205Z,11.73
2022-08-02T01:32:52.148Z,12.30
2022-08-02T01:35:51.079Z,12.02
2022-08-02T01:38:32.527Z,12.32
2022-08-02T01:41:05.406Z,12.48
2022-08-02T01:43:37.867Z,9.00
2022-08-02T01:46:08.624Z,9.35
2022-08-02T01:48:42.406Z,10.40
2022-08-02T01:51:15.039Z,11.98
2022-08-02T01:53:49.987Z,13.02
2022-08-02T01:56:21.623Z,12.93
2022-08-02T01:58:54.507Z,10.77
2022-08-02T02:01:25.449Z,13.43
2022-08-02T02:03:56.022Z,10.27
2022-08-02T02:06:26.739Z,12.63
2022-08-02T02:08:59.199Z,11.30
2022-08-02T02:12:12.390Z,12.60
2022-08-02T02:14:23.968Z,12.80
2022-08-02T02:16:55.575Z,12.98
2022-08-02T02:19:27.241Z,13.25
2022-08-02T02:22:01.547Z,11.13
2022-08-02T02:24:33.396Z,10.70
2022-08-02T02:27:06.105Z,11.88
2022-08-02T02:29:36.980Z,13.55
2022-08-02T02:32:08.718Z,10.63
2022-08-02T02:34:46.839Z,10.68
2022-08-02T02:37:25.862Z,11.02
2022-08-02T02:40:00.526Z,10.20
2022-08-02T02:42:33.854Z,9.00
2022-08-02T02:45:05.750Z,9.32
2022-08-02T02:47:40.861Z,9.18
2022-08-02T02:50:13.447Z,11.48
2022-08-02T02:52:44.573Z,12.77
2022-08-02T02:55:16.103Z,11.10
2022-08-02T02:57:47.222Z,10.10
2022-08-02T03:00:17.895Z,9.65
2022-08-02T03:02:48.730Z,11.20
2022-08-02T03:05:19.246Z,10.23
2022-08-02T03:10:18.499Z,9.45
2022-08-02T03:12:49.027Z,9.30
2022-08-02T03:17:49.756Z,8.48
2022-08-02T03:22:52.010Z,9.15
2022-08-02T03:25:22.782Z,9.18
2022-08-02T03:27:53.709Z,9.50
2022-08-02T03:30:27.991Z,9.05
2022-08-02T03:32:58.594Z,8.75
2022-08-02T03:35:28.574Z,9.23
2022-08-02T03:38:00.250Z,10.52
2022-08-02T03:40:31.315Z,12.68
2022-08-02T03:43:03.003Z,12.60
2022-08-02T03:45:34.215Z,12.85
2022-08-02T03:48:33.860Z,12.05
2022-08-02T03:50:56.957Z,13.32
2022-08-02T03:53:28.590Z,14.35
2022-08-02T03:55:59.594Z,15.20
2022-08-02T03:58:29.998Z,14.15
2022-08-02T04:01:00.988Z,15.65
2022-08-02T04:03:31.618Z,14.32
2022-08-02T04:06:04.470Z,13.43
2022-08-02T04:08:38.347Z,13.68
2022-08-02T04:11:27.043Z,14.20
2022-08-02T04:13:57.531Z,13.73
2022-08-02T04:16:48.018Z,14.20
2022-08-02T04:22:05.971Z,10.35
2022-08-02T04:24:48.412Z,12.68
2022-08-02T04:28:15.145Z,14.23
2022-08-02T04:30:12.799Z,13.00
2022-08-02T04:32:47.545Z,12.40
2022-08-02T04:35:21.122Z,12.23
2022-08-02T04:38:08.122Z,12.25
2022-08-02T04:40:40.903Z,14.07
2022-08-02T04:43:10.692Z,12.95
2022-08-02T04:48:10.574Z,13.70
2022-08-02T04:50:40.853Z,12.65
2022-08-02T04:53:11.441Z,13.88
2022-08-02T04:55:42.269Z,13.45
2022-08-02T04:58:38.352Z,14.68
2022-08-02T05:01:03.329Z,15.75
2022-08-02T05:03:34.158Z,13.02
2022-08-02T05:06:04.733Z,15.07
2022-08-02T05:08:52.811Z,13.95
2022-08-02T05:11:34.580Z,14.38
2022-08-02T05:14:07.932Z,16.13
2022-08-02T05:16:38.136Z,14.35
2022-08-02T05:19:09.152Z,14.57
2022-08-02T05:21:39.467Z,14.15
2022-08-02T05:24:10.397Z,13.02
2022-08-02T05:26:40.738Z,12.05
2022-08-02T05:29:11.330Z,12.25
2022-08-02T05:31:41.551Z,13.40
2022-08-02T05:34:12.317Z,12.55
2022-08-02T05:36:42.778Z,11.85
2022-08-02T05:39:19.127Z,12.07
2022-08-02T05:41:50.089Z,11.70
2022-08-02T05:44:20.652Z,12.38
2022-08-02T05:46:50.834Z,10.38
2022-08-02T05:49:21.520Z,11.70
2022-08-02T05:55:09.796Z,9.27
2022-08-02T05:57:55.167Z,9.05
2022-08-02T06:00:27.426Z,8.63
2022-08-02T06:03:17.844Z,9.43
2022-08-02T06:08:47.797Z,9.10
2022-08-02T06:11:26.563Z,9.63
2022-08-02T06:13:59.845Z,8.43
2022-08-02T06:16:32.577Z,8.77
2022-08-02T06:19:03.860Z,9.45
2022-08-02T06:22:31.551Z,9.45
2022-08-02T06:26:58.502Z,8.30
2022-08-02T06:29:29.007Z,8.45
2022-08-02T06:32:00.701Z,8.98
2022-08-02T06:34:30.908Z,8.07
2022-08-02T06:37:16.828Z,7.68
2022-08-02T06:39:53.451Z,9.05
2022-08-02T06:44:59.371Z,7.93
2022-08-02T06:47:30.246Z,8.40
2022-08-02T06:50:02.130Z,8.95
2022-08-02T06:52:33.229Z,9.45
2022-08-02T06:55:05.544Z,9.05
2022-08-02T06:57:36.304Z,8.60
2022-08-02T07:00:10.683Z,8.88
2022-08-02T07:02:41.171Z,8.82
2022-08-02T07:05:11.575Z,8.85
2022-08-02T07:07:42.024Z,8.30
2022-08-02T07:10:12.055Z,8.38
2022-08-02T07:12:42.768Z,8.60
2022-08-02T07:15:13.750Z,8.05
2022-08-02T07:17:47.251Z,8.70
2022-08-02T07:20:17.132Z,7.78
2022-08-02T07:22:47.382Z,8.35
2022-08-02T07:25:17.893Z,8.20
2022-08-02T07:27:48.216Z,8.50
2022-08-02T07:30:18.195Z,7.85
2022-08-02T07:32:48.515Z,9.02
2022-08-02T07:35:19.333Z,6.95
2022-08-02T07:37:55.239Z,7.85
2022-08-02T07:40:32.172Z,9.38
2022-08-02T07:43:04.201Z,7.95
2022-08-02T07:45:35.698Z,8.85
2022-08-02T07:48:07.209Z,8.18
2022-08-02T07:50:37.274Z,8.30
2022-08-02T07:53:07.714Z,8.43
2022-08-02T07:55:40.175Z,8.65
2022-08-02T07:58:14.217Z,9.55
2022-08-02T08:00:45.404Z,8.57
2022-08-02T08:03:15.885Z,10.18
2022-08-02T08:05:45.757Z,9.45
2022-08-02T08:08:17.747Z,9.07
2022-08-02T08:10:48.657Z,8.10
2022-08-02T08:13:19.190Z,8.75
2022-08-02T08:15:51.832Z,9.55
2022-08-02T08:18:25.547Z,8.18
2022-08-02T08:20:55.478Z,7.75
2022-08-02T08:23:26.199Z,9.43
2022-08-02T08:25:56.290Z,9.50
2022-08-02T08:28:26.582Z,9.45
2022-08-02T08:30:56.577Z,8.02
2022-08-02T08:33:27.193Z,8.82
2022-08-02T08:35:58.098Z,7.95
2022-08-02T08:38:28.891Z,8.75
2022-08-02T08:40:59.297Z,7.28
2022-08-02T08:43:29.983Z,8.23
2022-08-02T08:48:32.001Z,6.90
2022-08-02T08:51:22.710Z,7.57
2022-08-02T08:53:56.080Z,7.60
2022-08-02T08:56:35.706Z,6.68
2022-08-02T08:59:07.837Z,6.53
2022-08-02T09:01:50.053Z,7.00
2022-08-02T09:04:21.753Z,7.40
2022-08-02T09:06:52.154Z,7.80
2022-08-02T09:09:25.849Z,6.97
2022-08-02T09:14:30.614Z,6.82
2022-08-02T09:17:13.863Z,7.30
2022-08-02T09:19:46.031Z,7.22
2022-08-02T09:22:17.134Z,6.25
2022-08-02T09:24:50.151Z,7.35
2022-08-02T09:27:25.149Z,7.15
2022-08-02T09:30:12.049Z,7.38
2022-08-02T09:32:49.062Z,7.55
2022-08-02T09:36:06.454Z,7.45
2022-08-02T09:38:39.202Z,7.25
2022-08-02T09:41:23.045Z,7.88
2022-08-02T09:44:05.169Z,7.18
2022-08-02T09:46:41.309Z,8.05
2022-08-02T09:49:21.805Z,8.18
2022-08-02T09:51:58.126Z,8.60
2022-08-02T09:54:30.902Z,8.68
2022-08-02T09:57:02.794Z,7.97
2022-08-02T09:59:33.792Z,8.07
2022-08-02T10:02:17.028Z,7.97
2022-08-02T10:04:52.301Z,7.88
2022-08-02T10:07:26.184Z,7.97
2022-08-02T10:09:57.618Z,8.27
2022-08-02T10:12:28.619Z,7.68
2022-08-02T10:15:00.254Z,8.00
2022-08-02T10:17:31.127Z,9.13
2022-08-02T10:20:04.626Z,8.23
2022-08-02T10:22:41.337Z,8.35
2022-08-02T10:25:12.443Z,8.02
2022-08-02T10:28:04.270Z,9.23
2022-08-02T10:30:39.606Z,8.27
2022-08-02T10:33:11.965Z,8.15
2022-08-02T10:35:43.318Z,7.65
2022-08-02T10:38:14.438Z,8.05
2022-08-02T10:40:58.035Z,8.48
2022-08-02T10:43:34.426Z,8.20
2022-08-02T10:46:32.501Z,7.85
2022-08-02T10:49:44.235Z,7.50
2022-08-02T10:52:10.465Z,8.20
2022-08-02T10:54:44.299Z,8.15
2022-08-02T10:57:24.314Z,8.10
2022-08-02T11:00:00.015Z,8.23
2022-08-02T11:02:59.794Z,8.77
2022-08-02T11:05:43.249Z,7.53
2022-08-02T11:08:23.178Z,8.35
2022-08-02T11:10:53.462Z,7.70
2022-08-02T11:13:24.334Z,8.65
2022-08-02T11:16:11.233Z,8.93
2022-08-02T11:18:54.709Z,8.45
2022-08-02T11:21:27.234Z,10.10
2022-08-02T11:24:01.087Z,8.23
2022-08-02T11:26:31.226Z,7.80
2022-08-02T11:29:06.717Z,8.60
2022-08-02T11:31:44.591Z,8.45
2022-08-02T11:34:36.464Z,7.88
2022-08-02T11:37:06.363Z,8.48
2022-08-02T11:39:37.345Z,8.70
2022-08-02T11:42:07.866Z,9.43
2022-08-02T11:44:43.537Z,9.18
2022-08-02T11:47:15.329Z,8.82
2022-08-02T11:49:46.184Z,8.40
2022-08-02T11:52:16.685Z,9.55
2022-08-02T11:54:50.673Z,8.68
2022-08-02T11:57:23.758Z,10.00
2022-08-02T11:59:57.029Z,9.48
2022-08-02T12:02:26.968Z,8.13
2022-08-02T12:05:02.063Z,9.32
2022-08-02T12:07:36.282Z,8.85
2022-08-02T12:10:10.147Z,9.85
2022-08-02T12:13:12.261Z,9.32
2022-08-02T12:15:48.709Z,8.80
2022-08-02T12:18:39.241Z,9.35
2022-08-02T12:21:32.872Z,10.25
2022-08-02T12:24:03.147Z,9.82
2022-08-02T12:26:49.678Z,9.60
2022-08-02T12:29:56.011Z,9.43
2022-08-02T12:32:26.455Z,8.70
2022-08-02T12:35:11.407Z,10.98
2022-08-02T12:37:47.495Z,10.00
2022-08-02T12:40:27.562Z,8.68
2022-08-02T12:43:07.197Z,9.68
2022-08-02T12:45:50.875Z,10.40
2022-08-02T12:48:56.543Z,10.30
2022-08-02T12:51:56.439Z,8.40
2022-08-02T12:54:33.833Z,8.77
2022-08-02T12:57:24.478Z,10.38
2022-08-02T12:59:57.167Z,8.63
2022-08-02T13:02:27.589Z,10.70
2022-08-02T13:05:01.633Z,9.30
2022-08-02T13:08:04.044Z,10.32
2022-08-02T13:35:55.219Z,9.77
2022-08-02T13:38:28.563Z,9.23
2022-08-02T13:41:10.415Z,10.55
2022-08-02T13:43:53.423Z,9.63
2022-08-02T13:46:28.891Z,8.75
2022-08-02T13:49:00.490Z,9.75
2022-08-02T13:51:31.227Z,10.80
2022-08-02T13:54:07.724Z,10.15
2022-08-02T13:56:38.375Z,10.07
2022-08-02T14:01:59.836Z,9.60
2022-08-02T14:04:32.057Z,10.07
2022-08-02T14:07:02.720Z,11.30
2022-08-02T14:12:05.803Z,8.68
2022-08-02T14:14:35.988Z,8.60
2022-08-02T14:17:06.838Z,9.70
2022-08-02T14:19:37.170Z,8.95
2022-08-02T14:22:10.820Z,9.20
2022-08-02T14:24:42.773Z,8.70
2022-08-02T14:27:13.798Z,10.30
2022-08-02T14:29:44.386Z,9.95
2022-08-02T14:32:15.573Z,10.02
2022-08-02T14:34:46.297Z,10.05
2022-08-02T14:37:17.319Z,9.73
2022-08-02T14:40:00.455Z,11.02
2022-08-02T14:45:03.743Z,9.93
2022-08-02T14:47:34.654Z,8.93
2022-08-02T14:50:05.154Z,9.90
2022-08-02T14:52:36.014Z,9.20
2022-08-02T14:55:06.822Z,8.15
2022-08-02T14:57:37.450Z,10.38
2022-08-02T15:00:09.161Z,9.60
2022-08-02T15:02:42.021Z,9.93
2022-08-02T15:05:12.363Z,10.07
2022-08-02T15:07:47.787Z,10.07
2022-08-02T15:10:19.758Z,10.00
2022-08-02T15:12:50.409Z,9.93
2022-08-02T15:15:21.050Z,10.57
2022-08-02T15:17:51.668Z,10.55
2022-08-02T15:20:25.611Z,9.20
2022-08-02T15:22:56.818Z,9.85
2022-08-02T15:25:29.277Z,10.48
2022-08-02T15:28:01.720Z,8.82
2022-08-02T15:30:31.965Z,9.20
2022-08-02T15:33:02.698Z,9.20
2022-08-02T15:35:33.116Z,8.40
2022-08-02T15:38:03.901Z,9.32
2022-08-02T15:40:34.288Z,8.00
2022-08-02T15:43:05.077Z,7.72
2022-08-02T15:45:37.332Z,8.10
2022-08-02T15:48:09.083Z,9.60
2022-08-02T15:50:41.090Z,10.02
2022-08-02T15:53:12.744Z,10.27
2022-08-02T15:55:52.717Z,10.73
2022-08-02T15:58:34.022Z,10.15
2022-08-02T16:01:14.486Z,8.48
2022-08-02T16:03:45.140Z,9.73
2022-08-02T16:06:16.750Z,9.43
2022-08-02T16:08:53.453Z,9.95
2022-08-02T16:11:24.925Z,8.57
2022-08-02T16:13:55.698Z,8.55
2022-08-02T16:16:31.605Z,8.23
2022-08-02T16:19:46.498Z,8.15
2022-08-02T16:21:54.694Z,8.88
2022-08-02T16:24:25.485Z,8.93
2022-08-02T16:26:55.853Z,10.02
2022-08-02T16:29:33.521Z,8.43
2022-08-02T16:32:04.135Z,7.90
2022-08-02T16:34:50.771Z,8.10
2022-08-02T16:39:54.635Z,8.43
2022-08-02T16:42:25.894Z,7.53
2022-08-02T16:44:56.165Z,7.95
2022-08-02T16:47:42.632Z,7.72
2022-08-02T16:50:14.588Z,7.70
2022-08-02T16:52:45.447Z,8.20
2022-08-02T16:55:16.180Z,8.43
2022-08-02T16:57:50.306Z,7.95
2022-08-02T17:00:20.987Z,8.63
2022-08-02T17:02:51.814Z,8.00
2022-08-02T17:05:22.102Z,7.38
2022-08-02T17:08:07.317Z,10.57
2022-08-02T17:10:43.467Z,11.10
2022-08-02T17:13:14.296Z,8.45
2022-08-02T17:16:01.588Z,8.50
2022-08-02T17:18:42.434Z,9.30
2022-08-02T17:21:13.167Z,8.32
2022-08-02T17:24:06.155Z,9.13
2022-08-02T17:26:34.029Z,9.50
2022-08-02T17:29:15.726Z,9.02
2022-08-02T17:32:04.742Z,8.85
2022-08-02T17:34:39.882Z,9.02
2022-08-02T17:37:19.162Z,9.40
2022-08-02T17:39:51.633Z,8.82
2022-08-02T17:42:24.137Z,8.77
2022-08-02T17:45:06.876Z,9.00
2022-08-02T17:48:04.709Z,9.10
2022-08-02T17:50:36.700Z,9.00
2022-08-02T17:53:09.635Z,9.48
2022-08-02T17:55:42.586Z,9.75
2022-08-02T17:58:13.012Z,10.05
2022-08-02T18:00:45.110Z,8.70
2022-08-02T18:03:15.510Z,10.18
2022-08-02T18:05:55.097Z,10.88
2022-08-02T18:08:25.612Z,9.10
2022-08-02T18:10:57.747Z,9.88
2022-08-02T18:13:32.891Z,9.13
2022-08-02T18:16:06.672Z,10.10
2022-08-02T18:18:52.184Z,8.90
2022-08-02T18:21:23.258Z,9.00
2022-08-02T18:23:58.693Z,10.05
2022-08-02T18:26:31.417Z,10.30
2022-08-02T18:29:04.827Z,9.65
2022-08-02T18:31:39.194Z,11.70
2022-08-02T18:34:09.976Z,12.90
2022-08-02T18:36:47.362Z,11.80
2022-08-02T18:39:20.394Z,9.75
2022-08-02T18:41:52.853Z,10.52
2022-08-02T18:44:23.084Z,10.90
2022-08-02T18:46:54.319Z,13.32
2022-08-02T18:49:30.099Z,12.68
2022-08-02T18:52:27.443Z,10.57
2022-08-02T18:55:01.913Z,10.40
2022-08-02T18:58:17.128Z,10.45
2022-08-02T19:00:25.910Z,11.55
2022-08-02T19:02:56.998Z,10.00
2022-08-02T19:05:52.329Z,10.50
2022-08-02T19:08:19.250Z,10.30
2022-08-02T19:10:56.514Z,9.68
2022-08-02T19:13:27.990Z,9.95
2022-08-02T19:15:59.128Z,10.15
2022-08-02T19:18:29.984Z,12.23
2022-08-02T19:21:05.696Z,10.80
2022-08-02T19:23:54.568Z,12.55
2022-08-02T19:29:16.015Z,10.93
2022-08-02T19:32:02.276Z,11.68
2022-08-02T19:34:33.047Z,11.75
2022-08-02T19:37:03.107Z,10.15
2022-08-02T19:39:39.455Z,12.18
2022-08-02T19:42:09.559Z,10.25
2022-08-02T19:44:44.992Z,10.07
2022-08-02T19:47:19.221Z,9.80
2022-08-02T19:49:50.389Z,10.38
2022-08-02T19:52:25.184Z,10.32
2022-08-02T19:54:58.722Z,11.40
2022-08-02T19:57:34.508Z,12.10
2022-08-02T20:00:08.043Z,12.27
2022-08-02T20:02:41.828Z,10.88
2022-08-02T20:05:26.872Z,11.07
2022-08-02T20:07:57.985Z,11.85
2022-08-02T20:10:28.816Z,10.93
2022-08-02T20:12:59.266Z,11.18
2022-08-02T20:15:55.663Z,10.43
2022-08-02T20:18:26.619Z,10.73
2022-08-02T20:20:57.670Z,12.48
2022-08-02T20:23:32.033Z,10.55
2022-08-02T20:26:04.042Z,10.98
2022-08-02T20:28:34.150Z,10.65
2022-08-02T20:31:08.777Z,10.88
2022-08-02T20:33:55.722Z,11.48
2022-08-02T20:36:28.333Z,11.27
2022-08-02T20:38:58.435Z,11.85
2022-08-02T20:41:37.007Z,11.57
2022-08-02T20:44:30.591Z,14.88
2022-08-02T20:47:01.679Z,15.65
2022-08-02T20:49:40.895Z,15.63
2022-08-02T20:52:19.437Z,13.93
2022-08-02T20:54:54.684Z,14.73
2022-08-02T20:57:49.101Z,14.20
2022-08-02T21:00:16.321Z,14.70
2022-08-02T21:02:46.987Z,16.90
2022-08-02T21:05:18.633Z,15.10
2022-08-02T21:07:53.414Z,16.98
2022-08-02T21:10:23.953Z,19.42
2022-08-02T21:12:54.749Z,16.00
2022-08-02T21:15:26.488Z,14.60
2022-08-02T21:18:02.699Z,16.17
2022-08-02T21:20:36.272Z,14.68
2022-08-02T21:23:19.796Z,17.17
2022-08-02T21:25:57.099Z,18.17
2022-08-02T21:28:36.169Z,19.15
2022-08-02T21:31:18.370Z,17.77
2022-08-02T21:33:58.426Z,18.23
2022-08-02T21:36:33.935Z,17.60
2022-08-02T21:39:09.045Z,16.15
2022-08-02T21:41:46.226Z,16.55
2022-08-02T21:44:19.983Z,16.60
2022-08-02T21:46:52.879Z,15.45
2022-08-02T21:49:40.880Z,15.77
2022-08-02T21:52:16.367Z,14.77
2022-08-02T21:54:47.878Z,15.20
2022-08-02T21:57:19.759Z,15.18
2022-08-02T21:59:55.554Z,15.77
2022-08-02T22:02:30.730Z,14.32
2022-08-02T22:05:01.972Z,15.70
2022-08-02T22:07:38.183Z,15.20
2022-08-02T22:10:12.782Z,14.25
2022-08-02T22:12:42.974Z,14.48
2022-08-02T22:15:15.785Z,19.65
2022-08-02T22:17:53.488Z,18.08
2022-08-02T22:20:30.292Z,15.82
2022-08-02T22:25:37.333Z,15.43
2022-08-02T22:28:39.025Z,15.75
2022-08-02T22:31:08.584Z,17.67
2022-08-02T22:34:00.854Z,17.85
2022-08-02T22:36:33.720Z,18.25
2022-08-02T22:39:18.782Z,16.55
2022-08-02T22:42:05.687Z,17.23
2022-08-02T22:44:37.677Z,16.92
2022-08-02T22:47:14.782Z,16.23
2022-08-02T22:49:54.270Z,17.83
2022-08-02T22:52:26.208Z,17.75
2022-08-02T22:54:56.227Z,17.73
2022-08-02T22:57:31.160Z,18.55
2022-08-02T22:58:48.002Z,11.15
2022-08-02T23:00:09.321Z,17.77
2022-08-02T23:02:39.960Z,16.42
2022-08-02T23:05:10.571Z,16.95
2022-08-02T23:07:41.127Z,17.23
2022-08-02T23:12:43.356Z,15.52
2022-08-02T23:15:13.877Z,16.73
2022-08-02T23:18:02.074Z,18.58
2022-08-02T23:20:32.791Z,18.05
2022-08-02T23:23:03.047Z,20.98
2022-08-02T23:25:42.390Z,19.50
2022-08-02T23:28:12.427Z,21.60
2022-08-02T23:30:42.923Z,18.27
2022-08-02T23:33:15.528Z,16.55
2022-08-02T23:35:46.130Z,18.42
2022-08-02T23:38:17.390Z,22.65
2022-08-02T23:40:49.710Z,21.45
2022-08-02T23:43:22.859Z,22.65
2022-08-02T23:46:03.143Z,20.20
2022-08-02T23:48:33.223Z,21.60
2022-08-02T23:51:03.845Z,18.92
2022-08-02T23:53:33.883Z,18.92
2022-08-02T23:56:03.762Z,20.08
2022-08-02T23:58:35.835Z,15.88
